Hauptseite
METAR-TAF:

METAR-TAF

Flughäfen :

Flughafen Berlin-Tegel

Berlin, Deutschland

Breite: 52-34N, Länge: 013-19E, Höhe: 37 m

Beobachtung

Neuester Wetterbericht von vor 19 Minuten, um 00:20 UTC
Wind 1 kt aus unterschiedlichen Richtungen
Temperatur 7°C
Luftfeuchtigkeit 93%
Luftdruck 1029 hPa
Sichtweite 10 km oder mehr
Nebelschwaden

METAR: EDDT 150020Z VRB01KT 9999 R08L/0800VP2000U R08R/0800VP2000U BCFG NSC 07/06 Q1029

Zeit: 01:39 (00:39 UTC)

Prognose

Neuester Wetterbericht von vor 1 Stunde und 39 Minuten, um 23:00 UTC
Gültige Prognose vom 15 um 00 UTC bis 15 um 24 UTC
Wind 4 kt aus Ost/Südost
Sichtweite 10 km oder mehr
keine Wolken unter 1500 m und keine Kumulonimbus oder Gewitterwolken
Wahrscheinlichkeit 30% :
Zeitweise
vom 15 um 05 UTC bis 15 um 07 UTC
Sichtweite: 4000 m
feuchter Dunst

TAF: EDDT 142300Z 1500/1524 12004KT CAVOK PROB30 TEMPO 1505/1507 4000 BR

Wetterbeobachtungen und Prognosen von mehr als 4000 Flughäfen (METAR und TAF Bericht).

Die verfügbaren Stationen werden durch gelbe und rote Markierungen auf der Karte dargestellt.

Führen Sie die Maus auf sie, um den Namen der Station zu sehen.

Darauf klicken, um die Beobachtung von Wetterbeobachtungen und Prognosen zu sehen.

Um die Karte zu ändern : klicken Sie auf den grünen Tasten mit einem schwarzen Kreuz Zum Vergrößern, auf den grünen Button mit einem Gedankenstrich zu verkleinern, oder auf die grünen Pfeile für benachbarte Karten.


METAR-TAF: